Time;durP1;ratioP1;P1;durP2;ratioP2;P2;SDS_P1;SDS_P2;PMS_P1;PMS_P2;Temp;Humidity;BMP_temperature;BMP_pressure;BME280_temperature;BME280_humidity;BME280_pressure;Samples;Min_cycle;Max_cycle;Signal;HPM_P1;HPM_P2
2022/03/28 00:01:15;;;;;;;25.43;6.23;;;;;;;;;;5021824;28;20190;-67
2022/03/28 00:03:40;;;;;;;28.70;7.30;;;;;;;;;;5022937;28;20507;-67
2022/03/28 00:06:09;;;;;;;28.27;6.80;;;;;;;;;;5026605;28;20242;-67
2022/03/28 00:08:35;;;;;;;15.80;5.33;;;;;;;;;;5016046;28;20197;-67
2022/03/28 00:11:00;;;;;;;21.60;5.70;;;;;;;;;;5028133;28;20614;-67
2022/03/28 00:13:26;;;;;;;32.00;6.30;;;;;;;;;;5025976;28;20174;-66
2022/03/28 00:15:52;;;;;;;30.00;6.57;;;;;;;;;;5025896;28;20193;-66
2022/03/28 00:18:17;;;;;;;24.03;5.77;;;;;;;;;;5025202;28;20202;-66
2022/03/28 00:20:42;;;;;;;27.73;5.97;;;;;;;;;;5026693;28;20197;-66
2022/03/28 00:23:08;;;;;;;28.17;6.40;;;;;;;;;;5027516;28;20213;-66
2022/03/28 00:25:35;;;;;;;20.53;5.23;;;;;;;;;;5026196;28;20272;-67
2022/03/28 00:28:01;;;;;;;21.50;5.90;;;;;;;;;;5027258;28;20186;-66
2022/03/28 00:30:26;;;;;;;21.27;5.07;;;;;;;;;;5022417;28;20236;-66
2022/03/28 00:32:51;;;;;;;19.53;7.03;;;;;;;;;;5019802;28;20189;-66
2022/03/28 00:35:17;;;;;;;24.83;7.77;;;;;;;;;;5018147;28;20274;-67
2022/03/28 00:37:43;;;;;;;24.00;7.67;;;;;;;;;;5028278;28;20593;-66
2022/03/28 00:40:10;;;;;;;20.67;7.40;;;;;;;;;;5027013;28;20193;-67
2022/03/28 00:42:37;;;;;;;20.53;6.77;;;;;;;;;;5023658;28;20272;-67
2022/03/28 00:45:04;;;;;;;22.53;6.70;;;;;;;;;;5026481;28;20198;-67
2022/03/28 00:47:30;;;;;;;14.60;5.43;;;;;;;;;;5015465;28;20198;-67
2022/03/28 00:49:56;;;;;;;16.90;6.47;;;;;;;;;;5025807;28;20194;-67
2022/03/28 00:52:21;;;;;;;18.87;6.20;;;;;;;;;;5026083;28;20564;-67
2022/03/28 00:54:47;;;;;;;18.37;6.33;;;;;;;;;;5020230;28;20190;-67
2022/03/28 00:57:12;;;;;;;13.90;6.17;;;;;;;;;;5026172;28;20186;-67
2022/03/28 00:59:37;;;;;;;19.20;6.23;;;;;;;;;;5018833;28;20694;-67
2022/03/28 01:02:03;;;;;;;16.30;6.30;;;;;;;;;;5007032;28;20194;-67
2022/03/28 01:04:29;;;;;;;16.83;5.93;;;;;;;;;;5015170;28;20570;-66
2022/03/28 01:06:55;;;;;;;12.97;5.47;;;;;;;;;;5025267;28;20324;-67
2022/03/28 01:09:20;;;;;;;14.73;7.10;;;;;;;;;;5026669;28;20264;-67
2022/03/28 01:11:46;;;;;;;14.63;7.67;;;;;;;;;;5011249;28;20198;-67
2022/03/28 01:14:12;;;;;;;20.90;8.53;;;;;;;;;;5025701;28;20178;-67
2022/03/28 01:19:23;;;;;;;15.87;6.37;;;;;;;;;;5015874;28;20200;-67
2022/03/28 01:21:49;;;;;;;16.10;6.83;;;;;;;;;;5015358;28;20304;-67
2022/03/28 01:24:14;;;;;;;24.03;7.63;;;;;;;;;;5023629;28;20256;-67
2022/03/28 01:26:40;;;;;;;17.03;7.80;;;;;;;;;;5026684;28;20186;-67
2022/03/28 01:29:06;;;;;;;21.43;7.97;;;;;;;;;;5025023;28;20182;-68
2022/03/28 01:31:31;;;;;;;20.03;7.87;;;;;;;;;;5019573;28;20205;-66
2022/03/28 01:33:57;;;;;;;24.17;11.63;;;;;;;;;;5014756;28;20664;-66
2022/03/28 01:36:25;;;;;;;21.23;9.43;;;;;;;;;;5016360;28;20634;-66
2022/03/28 01:38:50;;;;;;;22.33;8.13;;;;;;;;;;5020275;28;20284;-67
2022/03/28 01:41:16;;;;;;;17.00;7.27;;;;;;;;;;5022525;28;20276;-66
2022/03/28 01:43:41;;;;;;;18.57;7.60;;;;;;;;;;5019921;28;20201;-66
2022/03/28 01:46:06;;;;;;;18.53;9.03;;;;;;;;;;5021368;28;20518;-66
2022/03/28 01:48:32;;;;;;;18.80;8.17;;;;;;;;;;5014196;28;20179;-66
2022/03/28 01:50:57;;;;;;;19.13;7.20;;;;;;;;;;5009119;28;20193;-66
2022/03/28 01:53:22;;;;;;;27.33;10.37;;;;;;;;;;5022221;28;20185;-66
2022/03/28 01:55:48;;;;;;;22.63;9.23;;;;;;;;;;5020867;28;20703;-66
2022/03/28 01:58:13;;;;;;;29.10;9.73;;;;;;;;;;5011745;28;20646;-66
2022/03/28 02:00:38;;;;;;;27.53;11.67;;;;;;;;;;5025799;28;20264;-66
2022/03/28 02:03:04;;;;;;;47.13;10.87;;;;;;;;;;5014376;28;20248;-67
2022/03/28 02:05:29;;;;;;;27.63;9.00;;;;;;;;;;5015423;28;20289;-67
2022/03/28 02:07:55;;;;;;;24.77;9.80;;;;;;;;;;5024049;28;20251;-67
2022/03/28 02:10:21;;;;;;;48.23;12.10;;;;;;;;;;5018837;28;20215;-67
2022/03/28 02:12:47;;;;;;;53.70;17.30;;;;;;;;;;5022214;28;20256;-66
2022/03/28 02:15:13;;;;;;;75.23;22.87;;;;;;;;;;5020452;28;20233;-66
2022/03/28 02:17:40;;;;;;;86.90;23.90;;;;;;;;;;5009175;28;20254;-67
2022/03/28 02:20:08;;;;;;;30.20;9.20;;;;;;;;;;5007805;28;20209;-67
2022/03/28 02:22:34;;;;;;;46.00;9.07;;;;;;;;;;5019506;28;20178;-67
2022/03/28 02:25:00;;;;;;;34.47;9.23;;;;;;;;;;5023771;28;20264;-67
2022/03/28 02:27:25;;;;;;;47.60;9.27;;;;;;;;;;5024499;28;20269;-67
2022/03/28 02:29:50;;;;;;;19.03;10.07;;;;;;;;;;5015867;28;20252;-67
2022/03/28 02:32:16;;;;;;;24.67;9.53;;;;;;;;;;5020577;28;20206;-67
2022/03/28 02:34:41;;;;;;;32.30;8.00;;;;;;;;;;5017853;28;20535;-67
2022/03/28 02:37:07;;;;;;;48.37;8.47;;;;;;;;;;5023693;28;20198;-67
2022/03/28 02:39:32;;;;;;;31.83;9.43;;;;;;;;;;5025372;28;20182;-67
2022/03/28 02:41:57;;;;;;;22.90;9.37;;;;;;;;;;5014786;28;20191;-67
2022/03/28 02:44:23;;;;;;;37.47;9.93;;;;;;;;;;5020607;28;20183;-67
2022/03/28 02:46:49;;;;;;;40.63;11.63;;;;;;;;;;5019287;28;20196;-66
2022/03/28 02:49:15;;;;;;;35.10;10.57;;;;;;;;;;5025414;28;20182;-66
2022/03/28 02:51:40;;;;;;;55.20;10.37;;;;;;;;;;5016801;28;20183;-67
2022/03/28 02:54:06;;;;;;;36.43;10.37;;;;;;;;;;5017993;28;20201;-66
2022/03/28 02:56:32;;;;;;;38.90;11.13;;;;;;;;;;5015268;28;20195;-66
2022/03/28 02:58:57;;;;;;;47.33;12.23;;;;;;;;;;5023811;28;20182;-67
2022/03/28 03:01:23;;;;;;;42.50;12.13;;;;;;;;;;5019477;28;20236;-67
2022/03/28 03:03:48;;;;;;;30.60;10.03;;;;;;;;;;5017554;28;20226;-67
2022/03/28 03:06:13;;;;;;;42.60;11.87;;;;;;;;;;5020692;28;20205;-67
2022/03/28 03:08:39;;;;;;;48.30;10.50;;;;;;;;;;5021894;28;21147;-67
2022/03/28 03:11:04;;;;;;;48.83;10.93;;;;;;;;;;5024817;28;20561;-66
2022/03/28 03:13:29;;;;;;;43.03;11.63;;;;;;;;;;5015045;28;20297;-66
2022/03/28 03:15:55;;;;;;;44.70;10.63;;;;;;;;;;5023209;28;20696;-67
2022/03/28 03:18:20;;;;;;;35.93;10.37;;;;;;;;;;5026042;28;20197;-67
2022/03/28 03:20:46;;;;;;;27.67;10.63;;;;;;;;;;5021352;28;20189;-67
2022/03/28 03:23:11;;;;;;;31.90;10.30;;;;;;;;;;5027546;28;20243;-67
2022/03/28 03:25:36;;;;;;;37.37;10.00;;;;;;;;;;5019911;28;20236;-67
2022/03/28 03:28:02;;;;;;;36.13;11.13;;;;;;;;;;5019453;28;20560;-67
2022/03/28 03:30:28;;;;;;;52.53;10.87;;;;;;;;;;5018957;28;20201;-67
2022/03/28 03:32:53;;;;;;;38.87;10.50;;;;;;;;;;5024096;28;20193;-67
2022/03/28 03:35:18;;;;;;;38.57;9.40;;;;;;;;;;5027255;28;20244;-67
2022/03/28 03:37:44;;;;;;;35.07;9.27;;;;;;;;;;5027398;28;20292;-67
2022/03/28 03:40:12;;;;;;;32.27;10.30;;;;;;;;;;5023017;28;20186;-67
2022/03/28 03:42:37;;;;;;;78.23;10.77;;;;;;;;;;5027068;28;20185;-67
2022/03/28 03:45:05;;;;;;;29.23;9.43;;;;;;;;;;5026861;28;20638;-67
2022/03/28 03:47:30;;;;;;;18.83;8.43;;;;;;;;;;5024303;28;20182;-67
2022/03/28 03:49:55;;;;;;;61.93;8.63;;;;;;;;;;5016061;28;20643;-67
2022/03/28 03:52:21;;;;;;;38.20;6.67;;;;;;;;;;5024869;28;20657;-67
2022/03/28 03:54:46;;;;;;;47.37;7.77;;;;;;;;;;5022060;28;20462;-67
2022/03/28 03:57:11;;;;;;;48.60;8.23;;;;;;;;;;5025238;28;20260;-67
2022/03/28 03:59:37;;;;;;;39.13;7.07;;;;;;;;;;5023660;28;20500;-67
2022/03/28 04:02:02;;;;;;;31.20;7.87;;;;;;;;;;5024946;28;20746;-66
2022/03/28 04:04:28;;;;;;;46.77;6.77;;;;;;;;;;5024804;28;20218;-67
2022/03/28 04:06:53;;;;;;;58.87;7.30;;;;;;;;;;5020883;28;20191;-66
2022/03/28 04:09:19;;;;;;;29.50;6.20;;;;;;;;;;5027454;28;20192;-66
2022/03/28 04:11:44;;;;;;;23.47;5.20;;;;;;;;;;5022396;28;20213;-66
2022/03/28 04:14:10;;;;;;;29.53;4.97;;;;;;;;;;5018449;28;20251;-67
2022/03/28 04:16:35;;;;;;;22.57;4.60;;;;;;;;;;5019893;28;20704;-67
2022/03/28 04:19:00;;;;;;;19.17;4.70;;;;;;;;;;5012409;28;20193;-67
2022/03/28 04:21:26;;;;;;;19.53;4.53;;;;;;;;;;5022879;28;20222;-67
2022/03/28 04:23:52;;;;;;;25.27;4.60;;;;;;;;;;5021383;28;20615;-67
2022/03/28 04:26:17;;;;;;;24.17;4.73;;;;;;;;;;5024909;28;20708;-67
2022/03/28 04:28:43;;;;;;;27.73;4.50;;;;;;;;;;5023841;28;20201;-67
2022/03/28 04:31:09;;;;;;;36.40;5.33;;;;;;;;;;5025823;28;20225;-67
2022/03/28 04:33:34;;;;;;;31.20;4.53;;;;;;;;;;5023923;28;20194;-67
2022/03/28 04:35:59;;;;;;;13.40;4.10;;;;;;;;;;5024277;28;20397;-67
2022/03/28 04:38:25;;;;;;;22.20;4.90;;;;;;;;;;5017669;28;20209;-67
2022/03/28 04:40:51;;;;;;;18.07;4.07;;;;;;;;;;5017512;28;20187;-67
2022/03/28 04:43:17;;;;;;;43.50;4.50;;;;;;;;;;5016785;28;20403;-66
2022/03/28 04:45:42;;;;;;;20.60;4.20;;;;;;;;;;5022912;28;20328;-66
2022/03/28 04:48:08;;;;;;;21.80;4.17;;;;;;;;;;5022843;28;20194;-67
2022/03/28 04:50:33;;;;;;;28.43;4.40;;;;;;;;;;5020341;28;20191;-67
2022/03/28 04:52:58;;;;;;;17.27;4.03;;;;;;;;;;5016281;28;20191;-67
2022/03/28 04:55:24;;;;;;;18.83;4.90;;;;;;;;;;5018405;28;20198;-67
2022/03/28 04:57:50;;;;;;;20.73;4.13;;;;;;;;;;5016436;28;20213;-67
2022/03/28 05:00:16;;;;;;;35.60;4.80;;;;;;;;;;5018736;28;20622;-67
2022/03/28 05:02:42;;;;;;;36.47;4.33;;;;;;;;;;5017291;28;20190;-67
2022/03/28 05:05:07;;;;;;;18.60;4.57;;;;;;;;;;5015197;28;20245;-66
2022/03/28 05:07:34;;;;;;;11.10;4.57;;;;;;;;;;5014727;28;20186;-66
2022/03/28 05:10:01;;;;;;;16.63;4.83;;;;;;;;;;5017570;28;20183;-68
2022/03/28 05:12:26;;;;;;;19.40;4.87;;;;;;;;;;5019518;28;20185;-66
2022/03/28 05:14:53;;;;;;;10.57;3.73;;;;;;;;;;5020355;28;20194;-67
2022/03/28 05:17:27;;;;;;;19.63;4.27;;;;;;;;;;5023852;28;20209;-68
2022/03/28 05:19:54;;;;;;;11.70;4.17;;;;;;;;;;5012759;28;20174;-67
2022/03/28 05:22:20;;;;;;;21.50;4.83;;;;;;;;;;5013100;28;20615;-67
2022/03/28 05:24:46;;;;;;;17.73;4.33;;;;;;;;;;5019324;28;20178;-67
2022/03/28 05:27:12;;;;;;;21.90;4.20;;;;;;;;;;5020648;28;20186;-66
2022/03/28 05:29:37;;;;;;;13.37;4.13;;;;;;;;;;5017619;28;20924;-67
2022/03/28 05:32:04;;;;;;;9.73;4.00;;;;;;;;;;5014564;28;20297;-67
2022/03/28 05:34:32;;;;;;;30.33;5.03;;;;;;;;;;5024325;28;20205;-67
2022/03/28 05:36:59;;;;;;;20.67;4.30;;;;;;;;;;5019744;28;20841;-67
2022/03/28 05:39:26;;;;;;;27.00;4.27;;;;;;;;;;5013892;28;20183;-67
2022/03/28 05:41:51;;;;;;;34.13;3.90;;;;;;;;;;5021236;28;20182;-67
2022/03/28 05:44:18;;;;;;;30.70;4.43;;;;;;;;;;5025070;28;20185;-67
2022/03/28 05:46:44;;;;;;;15.87;4.03;;;;;;;;;;5018767;28;20643;-66
2022/03/28 05:49:09;;;;;;;40.67;4.47;;;;;;;;;;5018120;28;20190;-66
2022/03/28 05:51:34;;;;;;;19.00;4.47;;;;;;;;;;5018050;28;20592;-67
2022/03/28 05:54:00;;;;;;;27.67;4.23;;;;;;;;;;5021016;28;20196;-67
2022/03/28 05:56:25;;;;;;;32.13;3.60;;;;;;;;;;5024423;28;20530;-67
2022/03/28 05:58:50;;;;;;;19.90;3.50;;;;;;;;;;5022670;28;20218;-66
2022/03/28 06:01:16;;;;;;;26.03;3.90;;;;;;;;;;5024387;28;20244;-67
2022/03/28 06:03:41;;;;;;;37.50;3.87;;;;;;;;;;5022931;28;20220;-67
2022/03/28 06:06:08;;;;;;;38.93;3.43;;;;;;;;;;5021768;28;20207;-67
2022/03/28 06:08:34;;;;;;;14.30;2.20;;;;;;;;;;5019365;28;20182;-67
2022/03/28 06:11:03;;;;;;;10.27;2.53;;;;;;;;;;5024022;28;20212;-67
2022/03/28 06:13:29;;;;;;;27.23;2.53;;;;;;;;;;5019112;28;20206;-67
2022/03/28 06:15:54;;;;;;;34.00;2.70;;;;;;;;;;5025115;28;20220;-67
2022/03/28 06:18:19;;;;;;;21.50;2.77;;;;;;;;;;5015566;28;20182;-66
2022/03/28 06:20:45;;;;;;;27.83;2.47;;;;;;;;;;5024962;28;20219;-67
2022/03/28 06:23:12;;;;;;;35.07;3.10;;;;;;;;;;5013013;28;20186;-67
2022/03/28 06:25:37;;;;;;;34.97;3.00;;;;;;;;;;5023950;28;20228;-68
2022/03/28 06:28:03;;;;;;;21.40;2.97;;;;;;;;;;5007971;28;20186;-67
2022/03/28 06:30:28;;;;;;;40.90;3.20;;;;;;;;;;5017880;28;20660;-67
2022/03/28 06:32:54;;;;;;;14.00;2.67;;;;;;;;;;5022527;28;20639;-68
2022/03/28 06:35:19;;;;;;;7.70;2.37;;;;;;;;;;5019298;28;20268;-67
2022/03/28 06:37:45;;;;;;;8.53;1.90;;;;;;;;;;5023272;28;20586;-67
2022/03/28 06:40:10;;;;;;;47.93;2.90;;;;;;;;;;5020780;28;20296;-67
2022/03/28 06:42:36;;;;;;;5.33;2.13;;;;;;;;;;5021892;28;20186;-67
2022/03/28 06:45:03;;;;;;;19.40;2.20;;;;;;;;;;5023055;28;20210;-67
2022/03/28 06:47:28;;;;;;;12.17;1.87;;;;;;;;;;5024589;28;20182;-67
2022/03/28 06:49:53;;;;;;;2.93;1.73;;;;;;;;;;5023897;28;20499;-67
2022/03/28 06:52:19;;;;;;;9.63;1.93;;;;;;;;;;5022120;28;20259;-66
2022/03/28 06:54:44;;;;;;;13.40;2.03;;;;;;;;;;5022280;28;20209;-66
2022/03/28 06:57:10;;;;;;;5.33;1.43;;;;;;;;;;5018872;28;20680;-67
2022/03/28 06:59:35;;;;;;;4.27;1.73;;;;;;;;;;5029401;28;20189;-67
2022/03/28 07:02:01;;;;;;;9.07;2.00;;;;;;;;;;5021449;28;20193;-67
2022/03/28 07:04:26;;;;;;;5.00;1.43;;;;;;;;;;5027491;28;20305;-66
2022/03/28 07:06:52;;;;;;;9.00;1.87;;;;;;;;;;5023065;28;20205;-66
2022/03/28 07:09:17;;;;;;;35.50;2.60;;;;;;;;;;5027408;28;20190;-67
2022/03/28 07:11:43;;;;;;;5.03;1.83;;;;;;;;;;5028015;28;20273;-66
2022/03/28 07:14:08;;;;;;;29.43;3.97;;;;;;;;;;5028405;28;20198;-67
2022/03/28 07:16:35;;;;;;;4.97;1.77;;;;;;;;;;5027718;28;20186;-68
2022/03/28 07:19:01;;;;;;;5.70;1.90;;;;;;;;;;5022033;28;20287;-67
2022/03/28 07:21:27;;;;;;;3.13;1.70;;;;;;;;;;5028696;28;20221;-67
2022/03/28 07:23:53;;;;;;;4.43;2.13;;;;;;;;;;5015132;28;20464;-68
2022/03/28 07:26:20;;;;;;;4.17;2.00;;;;;;;;;;5019230;28;20209;-67
2022/03/28 07:28:46;;;;;;;4.43;2.10;;;;;;;;;;5024946;28;20676;-68
2022/03/28 07:31:11;;;;;;;3.67;2.07;;;;;;;;;;5028913;28;20198;-66
2022/03/28 07:33:41;;;;;;;3.60;1.80;;;;;;;;;;5014297;28;20209;-67
2022/03/28 07:36:08;;;;;;;5.93;2.07;;;;;;;;;;5016673;28;20195;-67
2022/03/28 07:38:34;;;;;;;4.23;1.73;;;;;;;;;;5025132;28;20178;-67
2022/03/28 07:40:59;;;;;;;3.23;1.50;;;;;;;;;;5028873;28;20190;-67
2022/03/28 07:43:25;;;;;;;1.93;1.23;;;;;;;;;;5020483;28;20190;-67
2022/03/28 07:45:53;;;;;;;4.90;1.50;;;;;;;;;;5029322;28;20180;-67
2022/03/28 07:48:18;;;;;;;1.75;1.33;;;;;;;;;;5016846;28;20190;-67
2022/03/28 07:50:45;;;;;;;5.13;1.50;;;;;;;;;;5023866;28;20520;-71
2022/03/28 07:53:11;;;;;;;1.87;1.13;;;;;;;;;;5023733;28;20182;-67
2022/03/28 07:55:37;;;;;;;6.18;1.45;;;;;;;;;;5027619;28;20239;-67
2022/03/28 07:58:03;;;;;;;2.43;1.37;;;;;;;;;;5008564;28;20664;-67
2022/03/28 08:00:29;;;;;;;4.63;2.00;;;;;;;;;;5027352;28;20186;-67
2022/03/28 08:02:55;;;;;;;3.23;1.70;;;;;;;;;;5026697;28;20658;-67
2022/03/28 08:05:21;;;;;;;6.27;2.00;;;;;;;;;;5028205;28;20214;-66
2022/03/28 08:07:46;;;;;;;6.83;2.10;;;;;;;;;;5017640;28;20186;-67
2022/03/28 08:10:13;;;;;;;5.63;2.23;;;;;;;;;;5025359;28;20193;-66
2022/03/28 08:12:38;;;;;;;3.63;2.27;;;;;;;;;;5026236;28;20247;-66
2022/03/28 08:15:07;;;;;;;3.67;1.83;;;;;;;;;;5016627;28;20190;-67
2022/03/28 08:17:35;;;;;;;5.25;2.08;;;;;;;;;;5027339;28;20633;-66
2022/03/28 08:20:00;;;;;;;4.93;2.23;;;;;;;;;;5022485;28;20552;-67
2022/03/28 08:22:26;;;;;;;6.20;2.77;;;;;;;;;;5026440;28;20186;-67
2022/03/28 08:24:51;;;;;;;5.17;2.37;;;;;;;;;;5012270;28;20279;-67
2022/03/28 08:27:17;;;;;;;5.53;2.60;;;;;;;;;;5028333;28;20182;-68
2022/03/28 08:29:42;;;;;;;9.40;2.60;;;;;;;;;;5023892;28;20542;-67
2022/03/28 08:32:09;;;;;;;4.97;2.78;;;;;;;;;;5027974;28;20226;-65
2022/03/28 08:34:34;;;;;;;5.83;2.87;;;;;;;;;;5025800;28;20627;-67
2022/03/28 08:36:59;;;;;;;7.30;2.83;;;;;;;;;;5022723;28;20237;-67
2022/03/28 08:39:25;;;;;;;11.23;3.45;;;;;;;;;;5022381;28;20178;-67
2022/03/28 08:41:50;;;;;;;7.38;2.72;;;;;;;;;;5027745;28;20285;-66
2022/03/28 08:44:18;;;;;;;5.63;2.40;;;;;;;;;;5022218;28;20236;-66
2022/03/28 08:46:44;;;;;;;6.72;2.97;;;;;;;;;;5023699;28;20506;-66
2022/03/28 08:49:10;;;;;;;4.18;2.45;;;;;;;;;;5019410;28;20201;-67
2022/03/28 08:51:36;;;;;;;4.65;2.97;;;;;;;;;;5026007;28;20664;-67
2022/03/28 08:54:02;;;;;;;7.10;3.00;;;;;;;;;;5017089;28;20553;-67
2022/03/28 08:56:27;;;;;;;6.30;3.22;;;;;;;;;;5024692;28;20193;-66
2022/03/28 08:58:53;;;;;;;7.53;3.08;;;;;;;;;;5026664;28;20594;-67
2022/03/28 09:01:22;;;;;;;6.70;3.22;;;;;;;;;;5027069;28;20256;-67
2022/03/28 09:03:49;;;;;;;8.55;3.50;;;;;;;;;;5018992;28;20265;-67
2022/03/28 09:06:36;;;;;;;5.88;3.40;;;;;;;;;;5017156;28;20187;-67
2022/03/28 09:09:19;;;;;;;9.07;3.30;;;;;;;;;;5016389;28;20546;-67
2022/03/28 09:11:55;;;;;;;8.10;3.13;;;;;;;;;;5025499;28;20248;-67
2022/03/28 09:14:31;;;;;;;10.20;3.75;;;;;;;;;;5025968;28;20223;-67
2022/03/28 09:17:01;;;;;;;7.70;3.03;;;;;;;;;;5017159;28;20288;-66
2022/03/28 09:19:52;;;;;;;6.85;3.75;;;;;;;;;;5021831;28;20290;-67
2022/03/28 09:22:25;;;;;;;7.22;3.33;;;;;;;;;;5027977;28;20220;-66
2022/03/28 09:24:54;;;;;;;10.68;4.20;;;;;;;;;;5023856;28;20686;-66
2022/03/28 09:27:21;;;;;;;12.70;4.28;;;;;;;;;;5027803;28;20186;-66
2022/03/28 09:30:01;;;;;;;9.93;4.60;;;;;;;;;;5011374;28;20190;-66
2022/03/28 09:32:31;;;;;;;10.30;4.47;;;;;;;;;;5027751;28;20210;-66
2022/03/28 09:35:01;;;;;;;11.23;4.78;;;;;;;;;;5025130;28;20520;-66
2022/03/28 09:37:27;;;;;;;7.88;4.38;;;;;;;;;;5027315;28;20197;-66
2022/03/28 09:39:52;;;;;;;10.80;4.32;;;;;;;;;;5016194;28;20712;-66
2022/03/28 09:42:18;;;;;;;12.93;4.75;;;;;;;;;;5019215;28;20272;-66
2022/03/28 09:44:47;;;;;;;9.45;4.45;;;;;;;;;;5021795;28;20218;-68
2022/03/28 09:47:14;;;;;;;10.55;4.82;;;;;;;;;;5026230;28;20592;-68
2022/03/28 09:49:44;;;;;;;12.48;5.32;;;;;;;;;;5023399;28;20614;-67
2022/03/28 09:52:14;;;;;;;11.07;4.68;;;;;;;;;;5010909;28;20191;-67
2022/03/28 09:54:52;;;;;;;11.13;5.10;;;;;;;;;;5023951;28;20201;-67
2022/03/28 09:57:26;;;;;;;12.90;5.00;;;;;;;;;;5025525;28;20198;-67
2022/03/28 09:59:53;;;;;;;10.82;5.28;;;;;;;;;;5022865;28;20651;-67
2022/03/28 10:02:26;;;;;;;8.93;4.60;;;;;;;;;;5017669;28;20196;-68
2022/03/28 10:04:54;;;;;;;10.60;4.85;;;;;;;;;;5022221;28;20221;-68
2022/03/28 10:07:20;;;;;;;12.40;4.85;;;;;;;;;;5015091;28;20593;-68
2022/03/28 10:09:47;;;;;;;14.23;4.78;;;;;;;;;;5014749;28;20716;-67
2022/03/28 10:12:13;;;;;;;9.70;5.03;;;;;;;;;;5025128;28;20209;-67
2022/03/28 10:14:39;;;;;;;11.95;5.07;;;;;;;;;;5023732;28;20205;-67
2022/03/28 10:17:06;;;;;;;7.47;4.57;;;;;;;;;;5016019;28;20521;-67
2022/03/28 10:19:33;;;;;;;13.95;6.00;;;;;;;;;;5016141;28;20297;-67
2022/03/28 10:22:03;;;;;;;8.40;4.63;;;;;;;;;;5025679;28;21759;-67
2022/03/28 10:24:33;;;;;;;10.23;4.60;;;;;;;;;;5020965;28;20261;-67
2022/03/28 10:27:00;;;;;;;11.25;4.85;;;;;;;;;;5026165;28;20570;-66
2022/03/28 10:29:34;;;;;;;12.80;5.35;;;;;;;;;;5028132;28;20182;-67
2022/03/28 10:32:02;;;;;;;15.70;4.40;;;;;;;;;;5028532;28;20206;-67
2022/03/28 10:34:54;;;;;;;9.07;4.75;;;;;;;;;;5027832;28;20194;-68
2022/03/28 10:37:37;;;;;;;10.88;5.30;;;;;;;;;;5029390;28;20193;-67
2022/03/28 10:40:15;;;;;;;10.30;5.18;;;;;;;;;;5025956;28;20796;-67
2022/03/28 10:42:52;;;;;;;12.05;4.60;;;;;;;;;;5027437;28;20244;-67
2022/03/28 10:45:21;;;;;;;10.65;5.07;;;;;;;;;;5022723;28;20217;-68
2022/03/28 10:47:55;;;;;;;11.60;5.35;;;;;;;;;;5015782;28;20721;-67
2022/03/28 10:50:30;;;;;;;12.93;5.10;;;;;;;;;;5023930;28;20602;-68
2022/03/28 10:53:16;;;;;;;10.43;4.68;;;;;;;;;;5030237;28;20208;-66
2022/03/28 10:55:46;;;;;;;9.40;4.88;;;;;;;;;;5015558;28;20208;-67
2022/03/28 10:58:17;;;;;;;12.98;5.35;;;;;;;;;;5029020;28;20195;-67
2022/03/28 11:01:11;;;;;;;13.23;5.30;;;;;;;;;;5027955;28;20186;-68
2022/03/28 11:03:45;;;;;;;11.77;5.32;;;;;;;;;;5029914;28;20276;-67
2022/03/28 11:06:11;;;;;;;11.65;5.63;;;;;;;;;;5026832;28;20237;-67
2022/03/28 11:08:39;;;;;;;11.20;5.60;;;;;;;;;;5029747;28;20220;-67
2022/03/28 11:11:24;;;;;;;10.27;5.10;;;;;;;;;;5029607;28;20768;-67
2022/03/28 11:14:16;;;;;;;11.60;6.03;;;;;;;;;;5017233;28;20202;-67
2022/03/28 11:16:49;;;;;;;12.52;6.43;;;;;;;;;;5022281;28;20231;-67
2022/03/28 11:20:03;;;;;;;19.38;6.80;;;;;;;;;;5011815;28;20191;-67
2022/03/28 11:22:56;;;;;;;17.80;6.25;;;;;;;;;;5017208;28;20204;-67
2022/03/28 11:25:29;;;;;;;13.50;6.10;;;;;;;;;;5023959;28;20239;-68
2022/03/28 11:28:12;;;;;;;13.80;6.32;;;;;;;;;;5023454;28;20178;-68
2022/03/28 11:30:59;;;;;;;14.38;7.05;;;;;;;;;;5017594;28;20606;-68
2022/03/28 11:33:30;;;;;;;14.13;6.72;;;;;;;;;;5027744;28;20183;-67
2022/03/28 11:36:25;;;;;;;18.77;6.45;;;;;;;;;;5024095;28;20234;-66
2022/03/28 11:38:53;;;;;;;17.67;6.18;;;;;;;;;;5009498;28;20194;-67
2022/03/28 11:41:20;;;;;;;14.75;7.03;;;;;;;;;;5022289;28;20182;-67
2022/03/28 11:43:51;;;;;;;14.95;7.22;;;;;;;;;;5026235;28;20175;-67
2022/03/28 11:46:20;;;;;;;16.08;7.38;;;;;;;;;;5021361;28;20178;-67
2022/03/28 11:48:55;;;;;;;17.23;7.60;;;;;;;;;;5029528;28;20186;-67
2022/03/28 11:51:22;;;;;;;15.88;7.53;;;;;;;;;;5027676;28;20215;-67
2022/03/28 11:53:48;;;;;;;16.92;7.05;;;;;;;;;;5029201;28;20197;-67
2022/03/28 11:56:24;;;;;;;15.48;6.97;;;;;;;;;;5018626;28;20244;-67
2022/03/28 11:58:49;;;;;;;16.38;7.75;;;;;;;;;;5029114;28;20177;-67
2022/03/28 12:01:16;;;;;;;18.20;8.25;;;;;;;;;;5026773;28;20532;-67
2022/03/28 12:03:49;;;;;;;21.38;9.25;;;;;;;;;;5028855;28;20218;-68
2022/03/28 12:06:36;;;;;;;17.67;7.63;;;;;;;;;;5014127;28;20519;-67
2022/03/28 12:09:06;;;;;;;19.52;8.45;;;;;;;;;;5018146;28;20244;-67
2022/03/28 12:11:34;;;;;;;26.08;9.82;;;;;;;;;;5024254;28;20170;-67
2022/03/28 12:14:00;;;;;;;18.23;8.25;;;;;;;;;;5027307;28;20227;-67
2022/03/28 12:16:25;;;;;;;19.52;7.70;;;;;;;;;;5025638;28;20279;-67
2022/03/28 12:18:53;;;;;;;18.58;8.00;;;;;;;;;;5014516;28;20285;-67
2022/03/28 12:21:19;;;;;;;20.17;7.75;;;;;;;;;;5024936;28;20189;-67
2022/03/28 12:23:44;;;;;;;20.10;8.45;;;;;;;;;;5027915;28;20193;-68
2022/03/28 12:26:11;;;;;;;23.05;9.32;;;;;;;;;;5026971;28;20264;-68
2022/03/28 12:28:43;;;;;;;19.38;8.90;;;;;;;;;;5023431;28;20257;-67
2022/03/28 12:31:08;;;;;;;20.98;9.35;;;;;;;;;;5023209;28;20264;-66
2022/03/28 12:33:42;;;;;;;17.75;8.93;;;;;;;;;;5013142;28;20520;-67
2022/03/28 12:36:24;;;;;;;24.00;9.57;;;;;;;;;;5025183;28;20235;-66
2022/03/28 12:39:00;;;;;;;20.63;8.38;;;;;;;;;;5027805;28;20193;-67
2022/03/28 12:41:26;;;;;;;23.20;8.82;;;;;;;;;;5026604;28;20182;-67
2022/03/28 12:43:52;;;;;;;22.35;9.70;;;;;;;;;;5025819;28;20604;-67
2022/03/28 12:46:18;;;;;;;20.92;9.73;;;;;;;;;;5020719;28;20228;-67
2022/03/28 12:48:52;;;;;;;21.15;9.68;;;;;;;;;;5027168;28;20268;-67
2022/03/28 12:51:28;;;;;;;20.92;9.68;;;;;;;;;;5025274;28;20661;-67
2022/03/28 12:54:09;;;;;;;22.00;10.05;;;;;;;;;;5024553;28;20642;-67
2022/03/28 12:56:46;;;;;;;25.10;9.15;;;;;;;;;;5026700;28;20213;-67
2022/03/28 12:59:20;;;;;;;24.92;10.30;;;;;;;;;;5023702;28;20178;-67
2022/03/28 13:01:45;;;;;;;21.42;9.32;;;;;;;;;;5027033;28;20213;-68
2022/03/28 13:04:17;;;;;;;19.70;10.15;;;;;;;;;;5022155;28;20210;-68
2022/03/28 13:06:49;;;;;;;22.52;10.55;;;;;;;;;;5012063;28;20194;-67
2022/03/28 13:09:19;;;;;;;25.05;10.10;;;;;;;;;;5017722;28;20186;-68
2022/03/28 13:11:45;;;;;;;24.92;9.50;;;;;;;;;;5026428;28;20753;-67
2022/03/28 13:14:28;;;;;;;22.92;10.13;;;;;;;;;;5022691;28;20284;-67
2022/03/28 13:17:12;;;;;;;24.02;9.55;;;;;;;;;;5014210;28;20289;-67
2022/03/28 13:19:55;;;;;;;20.75;9.85;;;;;;;;;;5023556;28;20178;-68
2022/03/28 13:22:27;;;;;;;25.80;11.00;;;;;;;;;;5023175;28;20174;-68
2022/03/28 13:25:17;;;;;;;21.98;10.13;;;;;;;;;;5024603;28;20186;-68
2022/03/28 13:28:08;;;;;;;22.40;10.23;;;;;;;;;;5023961;28;20689;-67
2022/03/28 13:30:43;;;;;;;19.08;9.38;;;;;;;;;;5009388;28;20206;-67
2022/03/28 13:33:12;;;;;;;22.33;9.27;;;;;;;;;;5019591;28;20185;-67
2022/03/28 13:35:38;;;;;;;19.98;8.80;;;;;;;;;;5021361;28;20199;-67
2022/03/28 13:38:06;;;;;;;20.30;8.88;;;;;;;;;;5019097;28;20178;-67
2022/03/28 13:40:33;;;;;;;18.83;9.23;;;;;;;;;;5021307;28;20182;-67
2022/03/28 13:42:59;;;;;;;20.40;9.45;;;;;;;;;;5017650;28;20181;-66
2022/03/28 13:45:26;;;;;;;21.17;9.25;;;;;;;;;;5025957;28;20184;-67
2022/03/28 13:47:52;;;;;;;17.38;9.50;;;;;;;;;;5027256;28;20181;-67
2022/03/28 13:50:18;;;;;;;23.38;9.15;;;;;;;;;;5022378;28;20197;-67
2022/03/28 13:52:44;;;;;;;19.00;9.05;;;;;;;;;;5020057;28;20546;-67
2022/03/28 13:55:10;;;;;;;20.13;8.70;;;;;;;;;;5016885;28;20205;-67
2022/03/28 13:57:36;;;;;;;25.95;9.93;;;;;;;;;;5023290;28;20288;-67
2022/03/28 14:00:03;;;;;;;17.60;8.70;;;;;;;;;;5021838;28;20186;-68
2022/03/28 14:02:28;;;;;;;17.88;8.75;;;;;;;;;;5021480;28;20650;-67
2022/03/28 14:04:54;;;;;;;17.50;8.63;;;;;;;;;;5023622;28;20222;-68
2022/03/28 14:07:20;;;;;;;21.35;9.27;;;;;;;;;;5022820;28;20593;-68
2022/03/28 14:09:45;;;;;;;20.88;8.90;;;;;;;;;;5024935;28;20182;-67
2022/03/28 14:12:11;;;;;;;21.90;10.25;;;;;;;;;;5022711;28;20170;-68
2022/03/28 14:14:36;;;;;;;21.77;8.52;;;;;;;;;;5025854;28;20190;-68
2022/03/28 14:17:03;;;;;;;16.33;8.75;;;;;;;;;;5021011;28;20696;-67
2022/03/28 14:19:29;;;;;;;19.35;8.68;;;;;;;;;;5024574;28;20189;-67
2022/03/28 14:21:55;;;;;;;15.52;7.65;;;;;;;;;;5024395;28;20182;-67
2022/03/28 14:24:21;;;;;;;17.40;8.23;;;;;;;;;;5021049;28;20289;-67
2022/03/28 14:26:47;;;;;;;18.67;9.73;;;;;;;;;;5018632;28;20547;-67
2022/03/28 14:29:12;;;;;;;17.00;9.70;;;;;;;;;;5021401;28;20236;-67
2022/03/28 14:31:38;;;;;;;19.73;9.75;;;;;;;;;;5023575;28;20225;-67
2022/03/28 14:34:03;;;;;;;16.80;9.55;;;;;;;;;;5024010;28;20673;-67
2022/03/28 14:36:29;;;;;;;18.48;8.73;;;;;;;;;;5024336;28;20182;-69
2022/03/28 14:38:55;;;;;;;21.25;9.18;;;;;;;;;;5022256;28;20673;-67